createdAt,value
2022-11-03T00:02:42.615Z,30.23
2022-11-03T00:17:46.117Z,36.33
2022-11-03T00:32:47.794Z,45.60
2022-11-03T00:48:08.184Z,57.33
2022-11-03T01:03:09.968Z,63.50
2022-11-03T01:18:11.665Z,63.20
2022-11-03T01:33:13.327Z,59.30
2022-11-03T01:48:18.989Z,52.37
2022-11-03T02:03:21.776Z,51.10
2022-11-03T02:18:27.259Z,45.57
2022-11-03T02:33:51.872Z,38.90
2022-11-03T02:48:53.493Z,46.03
2022-11-03T03:04:06.724Z,37.03
2022-11-03T03:19:08.312Z,21.33
2022-11-03T03:34:31.443Z,26.80
2022-11-03T03:49:32.791Z,26.47
2022-11-03T04:04:34.736Z,26.17
2022-11-03T04:19:55.091Z,28.67
2022-11-03T04:34:56.812Z,26.40
2022-11-03T04:49:58.890Z,26.97
2022-11-03T05:05:01.256Z,26.80
2022-11-03T10:30:13.413Z,14.25
2022-11-03T10:45:15.436Z,8.60
2022-11-03T11:00:18.188Z,7.40
2022-11-03T11:15:39.559Z,12.30
2022-11-03T11:30:41.583Z,38.07
2022-11-03T11:46:20.399Z,36.70
2022-11-03T12:01:34.145Z,12.30
2022-11-03T12:16:36.851Z,10.67
2022-11-03T13:02:11.389Z,8.93
2022-11-03T13:17:13.467Z,7.17
2022-11-03T13:32:15.341Z,11.60
2022-11-03T13:47:29.918Z,10.50
2022-11-03T14:18:06.093Z,8.70
2022-11-03T14:33:08.429Z,31.33
2022-11-03T14:48:10.830Z,8.20
2022-11-03T15:03:12.883Z,13.60
2022-11-03T15:18:14.772Z,13.83
2022-11-03T15:33:17.493Z,15.97
2022-11-03T15:48:19.434Z,17.43
2022-11-03T16:03:21.557Z,18.10
2022-11-03T16:18:23.524Z,15.33
2022-11-03T16:33:25.341Z,10.80
2022-11-03T16:48:27.151Z,11.03
2022-11-03T17:03:29.295Z,18.97
2022-11-03T17:18:31.304Z,25.10
2022-11-03T17:33:34.265Z,17.17
2022-11-03T17:48:36.176Z,25.43
2022-11-03T18:03:38.206Z,12.73
2022-11-03T18:18:42.719Z,13.43
2022-11-03T18:33:52.294Z,17.93
2022-11-03T18:48:54.376Z,14.43
2022-11-03T19:03:59.618Z,12.90
2022-11-03T19:19:01.736Z,16.17
2022-11-03T19:34:06.218Z,12.37
2022-11-03T19:49:14.967Z,11.73
2022-11-03T20:04:16.922Z,15.03
2022-11-03T20:19:18.786Z,13.87
2022-11-03T20:49:24.479Z,16.47
2022-11-03T21:04:29.160Z,16.83
2022-11-03T21:19:51.403Z,22.77
2022-11-03T21:34:53.352Z,14.23
2022-11-03T21:49:55.361Z,20.97
2022-11-03T22:04:58.038Z,18.27
2022-11-03T22:20:18.300Z,19.37
2022-11-03T22:35:39.804Z,17.63
2022-11-03T22:50:41.661Z,20.27
2022-11-03T23:05:43.608Z,19.90
2022-11-03T23:21:03.884Z,19.97
2022-11-03T23:36:13.538Z,21.40
2022-11-03T23:51:18.457Z,22.03
